createdAt,value
2018-03-16T00:01:15.486Z,98825.80
2018-03-16T00:03:43.869Z,98828.06
2018-03-16T00:06:12.216Z,98820.88
2018-03-16T00:08:40.584Z,98823.04
2018-03-16T00:11:09.054Z,98825.13
2018-03-16T00:13:37.465Z,98824.70
2018-03-16T00:16:05.819Z,98832.41
2018-03-16T00:18:34.216Z,98824.46
2018-03-16T00:21:02.572Z,98822.17
2018-03-16T00:23:30.988Z,98831.59
2018-03-16T00:25:59.343Z,98837.92
2018-03-16T00:28:27.727Z,98830.77
2018-03-16T00:30:56.413Z,98833.68
2018-03-16T00:33:24.810Z,98838.97
2018-03-16T00:35:53.159Z,98834.31
2018-03-16T00:38:21.528Z,98828.08
2018-03-16T00:40:49.960Z,98837.22
2018-03-16T00:43:18.352Z,98834.94
2018-03-16T00:45:46.747Z,98825.27
2018-03-16T00:48:15.097Z,98834.69
2018-03-16T00:50:43.460Z,98831.62
2018-03-16T00:53:11.899Z,98830.31
2018-03-16T00:55:40.260Z,98822.84
2018-03-16T00:58:08.682Z,98819.27
2018-03-16T01:00:37.572Z,98818.88
2018-03-16T01:03:06.086Z,98821.68
2018-03-16T01:05:34.497Z,98818.23
2018-03-16T01:08:02.848Z,98826.20
2018-03-16T01:10:31.258Z,98834.15
2018-03-16T01:12:59.602Z,98833.11
2018-03-16T01:15:27.981Z,98834.02
2018-03-16T01:17:56.319Z,98839.06
2018-03-16T01:20:24.689Z,98835.61
2018-03-16T01:22:53.034Z,98837.33
2018-03-16T01:25:21.399Z,98832.69
2018-03-16T01:27:49.814Z,98823.48
2018-03-16T01:30:18.180Z,98827.25
2018-03-16T01:32:46.737Z,98823.65
2018-03-16T01:35:15.064Z,98814.78
2018-03-16T01:37:43.422Z,98822.33
2018-03-16T01:40:12.027Z,98819.16
2018-03-16T01:42:40.578Z,98816.23
2018-03-16T01:45:08.974Z,98813.47
2018-03-16T01:47:37.328Z,98812.13
2018-03-16T01:50:05.753Z,98807.38
2018-03-16T01:52:34.136Z,98811.45
2018-03-16T01:55:02.492Z,98808.55
2018-03-16T01:57:31.034Z,98809.47
2018-03-16T01:59:59.405Z,98817.56
2018-03-16T02:02:27.820Z,98817.84
2018-03-16T02:04:56.199Z,98818.23
2018-03-16T02:07:24.583Z,98824.73
2018-03-16T02:09:52.927Z,98812.52
2018-03-16T02:12:21.368Z,98807.08
2018-03-16T02:14:49.722Z,98809.08
2018-03-16T02:17:18.193Z,98808.55
2018-03-16T02:19:46.552Z,98817.99
2018-03-16T02:22:14.921Z,98815.76
2018-03-16T02:24:43.276Z,98807.91
2018-03-16T02:27:11.848Z,98807.78
2018-03-16T02:29:40.209Z,98805.96
2018-03-16T02:32:08.598Z,98808.73
2018-03-16T02:34:37.124Z,98812.47
2018-03-16T02:37:05.522Z,98816.43
2018-03-16T02:39:33.869Z,98816.06
2018-03-16T02:42:02.290Z,98822.95
2018-03-16T02:44:30.697Z,98812.63
2018-03-16T02:46:59.036Z,98808.77
2018-03-16T02:49:27.420Z,98805.31
2018-03-16T02:51:55.850Z,98803.30
2018-03-16T02:54:24.561Z,98794.84
2018-03-16T02:56:52.953Z,98801.19
2018-03-16T02:59:21.362Z,98797.62
2018-03-16T03:01:49.702Z,98796.84
2018-03-16T03:04:18.088Z,98797.62
2018-03-16T03:06:46.448Z,98785.14
2018-03-16T03:09:14.823Z,98791.63
2018-03-16T03:11:43.180Z,98795.65
2018-03-16T03:14:11.542Z,98800.24
2018-03-16T03:16:39.906Z,98802.50
2018-03-16T03:19:08.268Z,98807.71
2018-03-16T03:21:36.626Z,98815.13
2018-03-16T03:24:05.055Z,98815.77
2018-03-16T03:26:33.963Z,98812.73
2018-03-16T03:29:02.342Z,98818.82
2018-03-16T03:31:30.881Z,98821.08
2018-03-16T03:33:59.304Z,98820.28
2018-03-16T03:36:27.684Z,98820.55
2018-03-16T03:38:56.140Z,98824.78
2018-03-16T03:41:24.526Z,98825.05
2018-03-16T03:43:52.880Z,98834.08
2018-03-16T03:46:21.239Z,98827.69
2018-03-16T03:48:49.576Z,98829.52
2018-03-16T03:51:17.958Z,98832.45
2018-03-16T03:53:46.311Z,98829.00
2018-03-16T03:56:14.680Z,98834.86
2018-03-16T03:58:43.109Z,98835.26
2018-03-16T04:01:11.475Z,98831.44
2018-03-16T04:03:39.835Z,98830.08
2018-03-16T04:06:08.230Z,98825.97
2018-03-16T04:08:36.611Z,98817.20
2018-03-16T04:11:04.982Z,98811.53
2018-03-16T04:13:33.333Z,98812.70
2018-03-16T04:16:01.724Z,98808.77
2018-03-16T04:18:30.123Z,98805.22
2018-03-16T04:20:58.494Z,98805.20
2018-03-16T04:23:26.836Z,98806.27
2018-03-16T04:25:55.218Z,98805.95
2018-03-16T04:28:23.572Z,98808.94
2018-03-16T04:30:51.924Z,98813.98
2018-03-16T04:33:20.279Z,98817.18
2018-03-16T04:35:48.648Z,98813.45
2018-03-16T04:38:17.004Z,98813.17
2018-03-16T04:40:45.373Z,98815.84
2018-03-16T04:43:13.735Z,98814.55
2018-03-16T04:45:42.094Z,98815.47
2018-03-16T04:48:10.477Z,98810.44
2018-03-16T04:50:38.836Z,98823.57
2018-03-16T04:53:07.225Z,98817.59
2018-03-16T04:55:35.699Z,98821.58
2018-03-16T04:58:04.103Z,98826.21
2018-03-16T05:00:32.467Z,98827.42
2018-03-16T05:03:00.864Z,98822.65
2018-03-16T05:05:29.246Z,98828.38
2018-03-16T05:07:57.716Z,98827.18
2018-03-16T05:10:26.156Z,98832.75
2018-03-16T05:12:54.509Z,98824.25
2018-03-16T05:15:22.878Z,98826.38
2018-03-16T05:17:51.236Z,98819.09
2018-03-16T05:20:19.632Z,98816.20
2018-03-16T05:22:48.104Z,98807.44
2018-03-16T05:25:16.459Z,98808.00
2018-03-16T05:27:44.978Z,98810.39
2018-03-16T05:30:13.328Z,98815.58
2018-03-16T05:32:41.680Z,98813.61
2018-03-16T05:35:10.281Z,98814.75
2018-03-16T05:37:38.634Z,98818.21
2018-03-16T05:40:07.667Z,98824.03
2018-03-16T05:42:36.536Z,98824.53
2018-03-16T05:45:05.031Z,98825.17
2018-03-16T05:47:33.468Z,98824.99
2018-03-16T05:50:01.845Z,98824.35
2018-03-16T05:52:30.267Z,98825.85
2018-03-16T05:54:58.640Z,98824.98
2018-03-16T05:57:27.033Z,98824.90
2018-03-16T05:59:55.420Z,98825.05
2018-03-16T06:02:23.803Z,98816.77
2018-03-16T06:04:52.172Z,98821.59
2018-03-16T06:07:20.526Z,98824.95
2018-03-16T06:09:48.887Z,98827.67
2018-03-16T06:12:17.245Z,98834.12
2018-03-16T06:14:45.848Z,98829.30
2018-03-16T06:17:14.297Z,98830.13
2018-03-16T06:19:42.672Z,98828.55
2018-03-16T06:22:11.063Z,98826.59
2018-03-16T06:24:39.576Z,98832.39
2018-03-16T06:27:07.960Z,98827.66
2018-03-16T06:29:36.366Z,98835.75
2018-03-16T06:32:04.727Z,98837.75
2018-03-16T06:34:33.082Z,98843.17
2018-03-16T06:37:01.440Z,98837.22
2018-03-16T06:39:29.913Z,98840.53
2018-03-16T06:41:58.261Z,98838.56
2018-03-16T06:44:26.740Z,98841.87
2018-03-16T06:46:55.109Z,98840.94
2018-03-16T06:49:23.513Z,98846.10
2018-03-16T06:51:52.025Z,98840.02
2018-03-16T06:54:20.980Z,98844.80
2018-03-16T06:56:49.346Z,98842.94
2018-03-16T06:59:17.802Z,98839.75
2018-03-16T07:01:46.156Z,98842.80
2018-03-16T07:04:14.515Z,98842.15
2018-03-16T07:06:42.939Z,98843.20
2018-03-16T07:09:12.158Z,98843.08
2018-03-16T07:11:40.568Z,98845.20
2018-03-16T07:14:08.924Z,98846.91
2018-03-16T07:16:37.363Z,98842.69
2018-03-16T07:19:05.733Z,98849.16
2018-03-16T07:21:34.111Z,98856.58
2018-03-16T07:24:02.464Z,98857.39
2018-03-16T07:26:30.823Z,98854.31
2018-03-16T07:28:59.237Z,98856.97
2018-03-16T07:31:27.615Z,98858.82
2018-03-16T07:33:55.967Z,98864.80
2018-03-16T07:36:24.477Z,98868.64
2018-03-16T07:38:52.839Z,98866.13
2018-03-16T07:41:21.448Z,98863.08
2018-03-16T07:43:49.823Z,98866.52
2018-03-16T07:46:18.187Z,98871.29
2018-03-16T07:48:46.589Z,98864.27
2018-03-16T07:51:15.024Z,98871.30
2018-03-16T07:53:43.394Z,98873.66
2018-03-16T07:56:11.817Z,98875.52
2018-03-16T07:58:40.213Z,98868.91
2018-03-16T08:01:08.632Z,98876.72
2018-03-16T08:03:36.997Z,98877.64
2018-03-16T08:06:05.346Z,98880.69
2018-03-16T08:08:33.703Z,98878.03
2018-03-16T08:11:02.046Z,98881.37
2018-03-16T08:13:30.460Z,98885.73
2018-03-16T08:15:58.812Z,98881.75
2018-03-16T08:18:27.227Z,98886.91
2018-03-16T08:20:55.580Z,98882.03
2018-03-16T08:23:24.041Z,98886.52
2018-03-16T08:25:52.421Z,98877.78
2018-03-16T08:28:20.796Z,98888.91
2018-03-16T08:30:49.193Z,98887.98
2018-03-16T08:33:17.598Z,98892.90
2018-03-16T08:35:45.953Z,98892.48
2018-03-16T08:38:14.328Z,98896.06
2018-03-16T08:40:42.762Z,98886.93
2018-03-16T08:43:11.270Z,98900.44
2018-03-16T08:45:39.649Z,98911.70
2018-03-16T08:48:08.048Z,98900.19
2018-03-16T08:50:36.448Z,98901.50
2018-03-16T08:53:04.836Z,98902.30
2018-03-16T08:55:33.196Z,98907.06
2018-03-16T08:58:01.593Z,98907.34
2018-03-16T09:00:30.015Z,98910.25
2018-03-16T09:02:58.356Z,98922.95
2018-03-16T09:05:26.749Z,98910.89
2018-03-16T09:07:55.192Z,98915.25
2018-03-16T09:10:23.742Z,98909.66
2018-03-16T09:12:52.184Z,98913.79
2018-03-16T09:15:20.576Z,98922.03
2018-03-16T09:17:49.144Z,98923.06
2018-03-16T09:20:17.515Z,98920.02
2018-03-16T09:22:45.873Z,98924.88
2018-03-16T09:25:14.375Z,98921.69
2018-03-16T09:27:42.837Z,98924.76
2018-03-16T09:30:11.178Z,98912.55
2018-03-16T09:32:39.577Z,98921.96
2018-03-16T09:35:07.972Z,98922.20
2018-03-16T09:37:36.419Z,98919.31
2018-03-16T09:40:04.822Z,98924.47
2018-03-16T09:42:33.167Z,98928.30
2018-03-16T09:45:01.568Z,98921.92
2018-03-16T09:47:29.924Z,98914.89
2018-03-16T09:49:58.313Z,98913.80
2018-03-16T09:52:26.693Z,98918.70
2018-03-16T09:55:06.938Z,98919.70
2018-03-16T09:57:35.381Z,98930.30
2018-03-16T10:00:03.740Z,98926.55
2018-03-16T10:02:32.117Z,98924.35
2018-03-16T10:05:00.596Z,98926.20
2018-03-16T10:07:28.977Z,98933.44
2018-03-16T10:09:57.387Z,98927.21
2018-03-16T10:12:25.848Z,98931.75
2018-03-16T10:14:54.224Z,98940.05
2018-03-16T10:17:22.611Z,98940.74
2018-03-16T10:19:51.000Z,98940.61
2018-03-16T10:22:19.344Z,98943.27
2018-03-16T10:24:47.724Z,98949.41
2018-03-16T10:27:16.137Z,98942.61
2018-03-16T10:29:44.619Z,98943.55
2018-03-16T10:32:13.026Z,98946.19
2018-03-16T10:34:41.379Z,98940.11
2018-03-16T10:37:10.014Z,98945.45
2018-03-16T10:39:38.375Z,98938.59
2018-03-16T10:42:06.770Z,98935.42
2018-03-16T10:44:35.175Z,98948.48
2018-03-16T10:47:03.517Z,98943.17
2018-03-16T10:49:31.900Z,98948.55
2018-03-16T10:52:00.529Z,98949.70
2018-03-16T10:54:28.901Z,98954.77
2018-03-16T10:56:57.285Z,98955.84
2018-03-16T10:59:25.652Z,98968.14
2018-03-16T11:01:55.971Z,98967.70
2018-03-16T11:04:35.205Z,98962.31
2018-03-16T11:07:09.150Z,98958.58
2018-03-16T11:09:37.518Z,98955.58
2018-03-16T11:12:05.938Z,98955.19
2018-03-16T11:14:34.286Z,98952.84
2018-03-16T11:17:02.651Z,98951.63
2018-03-16T11:19:31.014Z,98953.73
2018-03-16T11:21:59.600Z,98952.89
2018-03-16T11:24:28.101Z,98947.34
2018-03-16T11:26:56.469Z,98953.07
2018-03-16T11:29:24.903Z,98958.77
2018-03-16T11:31:53.273Z,98956.22
2018-03-16T11:34:21.654Z,98954.88
2018-03-16T11:36:50.059Z,98953.93
2018-03-16T11:39:18.443Z,98957.06
2018-03-16T11:41:46.844Z,98949.31
2018-03-16T11:44:15.212Z,98962.16
2018-03-16T11:46:43.579Z,98959.53
2018-03-16T11:49:11.962Z,98958.49
2018-03-16T11:51:40.369Z,98959.06
2018-03-16T11:54:08.748Z,98961.51
2018-03-16T11:56:37.123Z,98962.51
2018-03-16T11:59:05.482Z,98957.23
2018-03-16T12:01:33.850Z,98963.34
2018-03-16T12:04:02.270Z,98958.38
2018-03-16T12:06:30.633Z,98962.10
2018-03-16T12:08:58.980Z,98954.08
2018-03-16T12:11:27.455Z,98952.95
2018-03-16T12:13:55.833Z,98954.58
2018-03-16T12:16:24.222Z,98960.91
2018-03-16T12:18:52.635Z,98955.16
2018-03-16T12:21:21.760Z,98946.84
2018-03-16T12:23:50.130Z,98953.16
2018-03-16T12:26:18.519Z,98949.49
2018-03-16T12:28:49.951Z,98946.98
2018-03-16T12:31:15.340Z,98947.78
2018-03-16T12:33:43.789Z,98953.52
2018-03-16T12:36:12.159Z,98955.56
2018-03-16T12:38:40.516Z,98951.77
2018-03-16T12:41:08.924Z,98951.34
2018-03-16T12:43:37.381Z,98953.67
2018-03-16T12:46:06.351Z,98954.22
2018-03-16T12:48:34.738Z,98952.64
2018-03-16T12:51:03.105Z,98964.20
2018-03-16T12:53:31.511Z,98968.57
2018-03-16T12:55:59.907Z,98971.73
2018-03-16T12:58:28.278Z,98970.61
2018-03-16T13:00:56.632Z,98971.80
2018-03-16T13:03:24.991Z,98974.59
2018-03-16T13:05:53.827Z,98973.05
2018-03-16T13:08:22.216Z,98973.86
2018-03-16T13:10:50.566Z,98977.34
2018-03-16T13:13:18.925Z,98975.73
2018-03-16T13:15:47.454Z,98976.87
2018-03-16T13:18:15.836Z,98976.00
2018-03-16T13:20:44.185Z,98980.88
2018-03-16T13:23:12.659Z,98981.36
2018-03-16T13:25:41.077Z,98990.99
2018-03-16T13:28:09.477Z,98987.72
2018-03-16T13:30:37.874Z,98986.08
2018-03-16T13:33:06.255Z,98992.81
2018-03-16T13:35:34.650Z,98995.19
2018-03-16T13:38:03.026Z,98998.85
2018-03-16T13:40:31.590Z,98994.70
2018-03-16T13:43:00.013Z,99001.44
2018-03-16T13:45:28.663Z,99006.55
2018-03-16T13:47:57.026Z,99005.67
2018-03-16T13:50:25.380Z,99008.28
2018-03-16T13:52:53.764Z,99009.08
2018-03-16T13:55:22.128Z,99007.56
2018-03-16T13:57:50.533Z,99015.44
2018-03-16T14:00:18.905Z,99013.39
2018-03-16T14:02:47.359Z,99014.02
2018-03-16T14:05:15.751Z,99018.80
2018-03-16T14:07:44.149Z,99013.05
2018-03-16T14:10:12.553Z,99016.29
2018-03-16T14:12:40.938Z,99016.67
2018-03-16T14:15:09.326Z,99012.55
2018-03-16T14:17:37.700Z,99011.04
2018-03-16T14:20:06.253Z,99017.48
2018-03-16T14:22:34.584Z,99017.37
2018-03-16T14:25:02.960Z,99021.15
2018-03-16T14:27:31.327Z,99013.11
2018-03-16T14:29:59.685Z,99019.18
2018-03-16T14:32:28.052Z,99020.89
2018-03-16T14:34:56.461Z,99021.52
2018-03-16T14:37:24.826Z,99022.31
2018-03-16T14:39:53.194Z,99022.22
2018-03-16T14:42:21.555Z,99024.03
2018-03-16T14:44:49.921Z,99025.05
2018-03-16T14:47:18.281Z,99030.59
2018-03-16T14:49:46.733Z,99036.88
2018-03-16T14:52:15.200Z,99033.03
2018-03-16T14:54:43.642Z,99027.19
2018-03-16T14:57:12.037Z,99032.86
2018-03-16T14:59:40.485Z,99034.81
2018-03-16T15:02:09.010Z,99028.38
2018-03-16T15:04:37.404Z,99039.39
2018-03-16T15:07:05.766Z,99043.19
2018-03-16T15:09:34.119Z,99045.23
2018-03-16T15:12:02.473Z,99043.78
2018-03-16T15:14:30.823Z,99039.95
2018-03-16T15:16:59.322Z,99038.47
2018-03-16T15:19:27.673Z,99036.84
2018-03-16T15:21:56.120Z,99036.19
2018-03-16T15:24:24.859Z,99041.53
2018-03-16T15:26:53.300Z,99041.30
2018-03-16T15:29:21.622Z,99044.86
2018-03-16T15:31:49.952Z,99055.02
2018-03-16T15:34:18.303Z,99053.53
2018-03-16T15:36:46.734Z,99053.14
2018-03-16T15:39:15.112Z,99057.73
2018-03-16T15:41:43.445Z,99055.80
2018-03-16T15:44:11.767Z,99062.38
2018-03-16T15:46:40.089Z,99062.94
2018-03-16T15:49:08.477Z,99057.36
2018-03-16T15:51:36.825Z,99065.49
2018-03-16T15:54:05.157Z,99062.90
2018-03-16T15:56:33.567Z,99062.26
2018-03-16T15:59:01.923Z,99067.89
2018-03-16T16:01:30.350Z,99067.45
2018-03-16T16:03:58.681Z,99076.42
2018-03-16T16:06:27.006Z,99084.53
2018-03-16T16:08:55.337Z,99082.91
2018-03-16T16:11:23.656Z,99078.70
2018-03-16T16:13:51.978Z,99080.94
2018-03-16T16:16:20.308Z,99093.16
2018-03-16T16:18:48.629Z,99098.38
2018-03-16T16:21:16.964Z,99108.05
2018-03-16T16:23:45.311Z,99115.15
2018-03-16T16:26:13.618Z,99105.55
2018-03-16T16:28:42.055Z,99103.91
2018-03-16T16:31:10.394Z,99105.16
2018-03-16T16:33:38.936Z,99107.66
2018-03-16T16:36:07.376Z,99101.72
2018-03-16T16:38:35.725Z,99106.26
2018-03-16T16:41:04.060Z,99112.77
2018-03-16T16:43:32.451Z,99109.56
2018-03-16T16:46:00.765Z,99117.42
2018-03-16T16:48:29.090Z,99119.93
2018-03-16T16:50:57.421Z,99122.00
2018-03-16T16:53:25.763Z,99132.00
2018-03-16T16:55:54.093Z,99141.75
2018-03-16T16:58:22.438Z,99141.06
2018-03-16T17:00:50.777Z,99145.98
2018-03-16T17:03:19.118Z,99148.16
2018-03-16T17:05:47.450Z,99147.86
2018-03-16T17:08:15.780Z,99143.20
2018-03-16T17:10:44.102Z,99141.22
2018-03-16T17:13:12.439Z,99152.16
2018-03-16T17:15:40.779Z,99150.48
2018-03-16T17:18:09.206Z,99148.61
2018-03-16T17:20:37.614Z,99152.20
2018-03-16T17:23:06.107Z,99162.69
2018-03-16T17:25:34.655Z,99163.44
2018-03-16T17:28:03.049Z,99172.38
2018-03-16T17:30:31.404Z,99174.62
2018-03-16T17:32:59.738Z,99177.52
2018-03-16T17:35:28.091Z,99179.14
2018-03-16T17:37:56.432Z,99181.30
2018-03-16T17:40:24.776Z,99187.66
2018-03-16T17:42:53.209Z,99192.75
2018-03-16T17:45:21.581Z,99198.02
2018-03-16T17:47:49.933Z,99194.77
2018-03-16T17:50:18.267Z,99194.41
2018-03-16T17:52:46.603Z,99201.99
2018-03-16T17:55:14.985Z,99194.31
2018-03-16T17:57:43.362Z,99197.57
2018-03-16T18:00:11.702Z,99211.43
2018-03-16T18:02:40.101Z,99211.88
2018-03-16T18:05:08.544Z,99221.00
2018-03-16T18:07:36.920Z,99222.19
2018-03-16T18:10:05.267Z,99224.89
2018-03-16T18:12:33.745Z,99222.66
2018-03-16T18:15:02.105Z,99223.98
2018-03-16T18:17:30.434Z,99225.40
2018-03-16T18:19:59.096Z,99230.70
2018-03-16T18:22:27.492Z,99227.51
2018-03-16T18:24:55.829Z,99230.61
2018-03-16T18:27:24.178Z,99224.42
2018-03-16T18:29:52.691Z,99242.50
2018-03-16T18:32:21.041Z,99247.34
2018-03-16T18:34:49.443Z,99254.89
2018-03-16T18:37:17.869Z,99255.87
2018-03-16T18:39:46.189Z,99261.19
2018-03-16T18:42:14.552Z,99263.25
2018-03-16T18:44:42.890Z,99259.63
2018-03-16T18:47:14.053Z,99257.56
2018-03-16T18:49:42.382Z,99257.98
2018-03-16T18:52:10.923Z,99266.85
2018-03-16T18:54:39.263Z,99267.30
2018-03-16T18:57:07.646Z,99268.05
2018-03-16T18:59:36.134Z,99268.27
2018-03-16T19:02:04.469Z,99268.95
2018-03-16T19:04:32.855Z,99271.23
2018-03-16T19:07:01.213Z,99266.04
2018-03-16T19:09:29.549Z,99274.70
2018-03-16T19:11:57.883Z,99263.69
2018-03-16T19:14:26.235Z,99273.13
2018-03-16T19:16:54.596Z,99287.56
2018-03-16T19:19:22.940Z,99285.72
2018-03-16T19:21:51.303Z,99291.80
2018-03-16T19:24:19.757Z,99290.95
2018-03-16T19:26:48.087Z,99299.30
2018-03-16T19:29:16.472Z,99299.94
2018-03-16T19:31:44.791Z,99295.36
2018-03-16T19:34:13.156Z,99312.16
2018-03-16T19:36:41.498Z,99301.97
2018-03-16T19:39:09.888Z,99304.48
2018-03-16T19:41:38.344Z,99303.04
2018-03-16T19:44:06.810Z,99298.69
2018-03-16T19:46:35.165Z,99297.20
2018-03-16T19:49:03.849Z,99295.86
2018-03-16T19:51:33.143Z,99303.22
2018-03-16T19:54:01.489Z,99302.00
2018-03-16T19:56:29.839Z,99305.28
2018-03-16T19:58:58.167Z,99303.26
2018-03-16T20:01:26.495Z,99307.91
2018-03-16T20:03:54.826Z,99306.63
2018-03-16T20:06:23.149Z,99301.02
2018-03-16T20:08:51.514Z,99297.08
2018-03-16T20:11:19.888Z,99303.62
2018-03-16T20:13:48.218Z,99316.27
2018-03-16T20:16:16.597Z,99318.89
2018-03-16T20:18:44.941Z,99321.98
2018-03-16T20:21:13.292Z,99322.44
2018-03-16T20:23:41.616Z,99325.25
2018-03-16T20:26:10.174Z,99328.80
2018-03-16T20:28:38.519Z,99339.57
2018-03-16T20:31:07.026Z,99334.55
2018-03-16T20:33:35.363Z,99327.61
2018-03-16T20:36:03.681Z,99330.08
2018-03-16T20:38:32.020Z,99327.20
2018-03-16T20:41:00.465Z,99330.70
2018-03-16T20:43:28.802Z,99329.20
2018-03-16T20:45:57.191Z,99338.20
2018-03-16T20:48:25.650Z,99341.28
2018-03-16T20:50:53.992Z,99334.49
2018-03-16T20:53:22.388Z,99338.29
2018-03-16T20:55:50.730Z,99334.70
2018-03-16T20:58:19.075Z,99336.23
2018-03-16T21:00:47.409Z,99343.28
2018-03-16T21:03:15.746Z,99343.44
2018-03-16T21:05:44.092Z,99347.66
2018-03-16T21:08:12.574Z,99342.48
2018-03-16T21:10:40.940Z,99346.67
2018-03-16T21:13:09.301Z,99356.98
2018-03-16T21:15:37.730Z,99353.68
2018-03-16T21:18:06.264Z,99351.78
2018-03-16T21:20:34.605Z,99346.52
2018-03-16T21:23:02.967Z,99346.52
2018-03-16T21:25:31.276Z,99352.11
2018-03-16T21:27:59.651Z,99352.11
2018-03-16T21:30:28.011Z,99361.28
2018-03-16T21:32:56.340Z,99356.66
2018-03-16T21:35:24.667Z,99371.52
2018-03-16T21:37:53.015Z,99367.52
2018-03-16T21:40:21.484Z,99375.80
2018-03-16T21:42:49.841Z,99380.66
2018-03-16T21:45:18.207Z,99388.43
2018-03-16T21:47:46.534Z,99382.45
2018-03-16T21:50:14.888Z,99381.88
2018-03-16T21:52:43.207Z,99385.15
2018-03-16T21:55:11.541Z,99377.54
2018-03-16T21:57:39.863Z,99376.81
2018-03-16T22:00:08.275Z,99380.50
2018-03-16T22:02:36.599Z,99397.11
2018-03-16T22:05:04.919Z,99393.38
2018-03-16T22:07:33.328Z,99392.92
2018-03-16T22:10:01.731Z,99388.45
2018-03-16T22:12:30.058Z,99390.07
2018-03-16T22:14:58.464Z,99391.85
2018-03-16T22:17:26.793Z,99384.88
2018-03-16T22:19:55.158Z,99389.50
2018-03-16T22:22:23.503Z,99388.83
2018-03-16T22:24:51.868Z,99391.39
2018-03-16T22:27:20.194Z,99396.12
2018-03-16T22:29:49.351Z,99395.81
2018-03-16T22:32:17.769Z,99394.17
2018-03-16T22:34:46.148Z,99399.16
2018-03-16T22:37:14.638Z,99409.09
2018-03-16T22:39:43.000Z,99409.60
2018-03-16T22:42:11.406Z,99417.04
2018-03-16T22:44:39.797Z,99408.83
2018-03-16T22:47:08.130Z,99408.48
2018-03-16T22:49:36.487Z,99410.40
2018-03-16T22:52:04.807Z,99403.70
2018-03-16T22:54:33.184Z,99401.85
2018-03-16T22:57:01.533Z,99402.44
2018-03-16T22:59:30.219Z,99408.23
2018-03-16T23:01:58.552Z,99390.14
2018-03-16T23:04:26.908Z,99398.72
2018-03-16T23:06:55.301Z,99402.41
2018-03-16T23:09:23.634Z,99400.12
2018-03-16T23:11:52.159Z,99399.95
2018-03-16T23:14:20.507Z,99400.30
2018-03-16T23:16:48.852Z,99401.47
2018-03-16T23:19:17.174Z,99405.29
2018-03-16T23:21:45.613Z,99405.87
2018-03-16T23:24:13.951Z,99406.37
2018-03-16T23:26:42.291Z,99408.14
2018-03-16T23:29:10.645Z,99401.66
2018-03-16T23:31:39.000Z,99401.41
2018-03-16T23:34:08.396Z,99399.56
2018-03-16T23:36:36.790Z,99391.62
2018-03-16T23:39:05.160Z,99394.55
2018-03-16T23:41:33.485Z,99406.37
2018-03-16T23:44:01.853Z,99403.82
2018-03-16T23:46:30.236Z,99388.91
2018-03-16T23:48:58.572Z,99384.90
2018-03-16T23:51:26.924Z,99384.97
2018-03-16T23:53:55.268Z,99390.87
2018-03-16T23:56:23.599Z,99382.83
2018-03-16T23:58:51.914Z,99385.46
